createdAt,value
2022-11-01T00:00:49.597Z,100.00
2022-11-01T00:03:35.920Z,100.00
2022-11-01T00:06:22.897Z,100.00
2022-11-01T00:09:09.200Z,100.00
2022-11-01T00:11:55.391Z,100.00
2022-11-01T00:14:41.797Z,100.00
2022-11-01T00:17:28.106Z,100.00
2022-11-01T00:20:14.457Z,100.00
2022-11-01T00:23:00.790Z,100.00
2022-11-01T00:25:47.741Z,100.00
2022-11-01T00:28:34.438Z,100.00
2022-11-01T00:31:23.056Z,100.00
2022-11-01T00:34:09.507Z,100.00
2022-11-01T00:36:55.753Z,100.00
2022-11-01T00:39:42.420Z,100.00
2022-11-01T00:42:28.589Z,100.00
2022-11-01T00:45:15.240Z,100.00
2022-11-01T00:48:01.699Z,100.00
2022-11-01T00:50:47.831Z,100.00
2022-11-01T00:53:34.532Z,100.00
2022-11-01T00:56:20.862Z,100.00
2022-11-01T00:59:07.876Z,100.00
2022-11-01T01:01:54.173Z,100.00
2022-11-01T01:04:43.081Z,100.00
2022-11-01T01:07:29.517Z,100.00
2022-11-01T01:10:15.961Z,100.00
2022-11-01T01:13:02.886Z,100.00
2022-11-01T01:15:49.591Z,100.00
2022-11-01T01:18:35.759Z,100.00
2022-11-01T01:21:22.235Z,100.00
2022-11-01T01:24:08.791Z,100.00
2022-11-01T01:26:55.347Z,100.00
2022-11-01T01:29:43.436Z,100.00
2022-11-01T01:32:29.989Z,100.00
2022-11-01T01:35:16.228Z,100.00
2022-11-01T01:38:02.901Z,100.00
2022-11-01T01:40:49.118Z,100.00
2022-11-01T01:43:45.096Z,100.00
2022-11-01T01:46:31.479Z,100.00
2022-11-01T01:49:18.006Z,100.00
2022-11-01T01:52:04.857Z,100.00
2022-11-01T01:54:51.738Z,100.00
2022-11-01T01:57:39.641Z,100.00
2022-11-01T02:00:27.017Z,100.00
2022-11-01T02:03:14.826Z,100.00
2022-11-01T02:06:14.637Z,100.00
2022-11-01T02:09:04.196Z,100.00
2022-11-01T02:11:50.705Z,100.00
2022-11-01T02:14:37.620Z,100.00
2022-11-01T02:17:56.143Z,100.00
2022-11-01T02:20:51.857Z,100.00
2022-11-01T02:24:16.749Z,100.00
2022-11-01T02:27:24.213Z,100.00
2022-11-01T02:30:18.262Z,100.00
2022-11-01T02:33:22.418Z,100.00
2022-11-01T02:36:16.375Z,100.00
2022-11-01T02:39:20.068Z,100.00
2022-11-01T02:42:20.959Z,100.00
2022-11-01T02:45:27.563Z,100.00
2022-11-01T02:48:14.058Z,100.00
2022-11-01T02:51:00.694Z,100.00
2022-11-01T02:53:47.102Z,100.00
2022-11-01T02:56:34.309Z,100.00
2022-11-01T02:59:25.560Z,100.00
2022-11-01T03:02:39.472Z,100.00
2022-11-01T03:06:06.292Z,100.00
2022-11-01T03:09:10.024Z,100.00
2022-11-01T03:12:04.780Z,100.00
2022-11-01T03:15:07.456Z,100.00
2022-11-01T03:18:04.668Z,100.00
2022-11-01T03:20:59.261Z,100.00
2022-11-01T03:24:02.930Z,100.00
2022-11-01T03:27:04.486Z,100.00
2022-11-01T03:29:58.374Z,100.00
2022-11-01T03:32:48.072Z,100.00
2022-11-01T03:35:40.749Z,100.00
2022-11-01T03:38:30.400Z,100.00
2022-11-01T03:41:19.324Z,100.00
2022-11-01T03:44:06.852Z,100.00
2022-11-01T03:46:53.137Z,100.00
2022-11-01T03:49:39.646Z,100.00
2022-11-01T03:52:26.277Z,100.00
2022-11-01T03:55:20.163Z,100.00
2022-11-01T03:58:07.446Z,100.00
2022-11-01T04:00:55.765Z,100.00
2022-11-01T04:03:43.102Z,100.00
2022-11-01T04:06:29.697Z,100.00
2022-11-01T04:09:15.889Z,100.00
2022-11-01T04:12:02.080Z,100.00
2022-11-01T04:15:07.051Z,100.00
2022-11-01T04:18:31.022Z,100.00
2022-11-01T04:21:24.711Z,100.00
2022-11-01T04:24:11.185Z,100.00
2022-11-01T04:26:57.449Z,100.00
2022-11-01T04:29:44.036Z,100.00
2022-11-01T04:32:30.497Z,100.00
2022-11-01T04:35:16.855Z,100.00
2022-11-01T04:38:04.011Z,100.00
2022-11-01T04:40:50.650Z,100.00
2022-11-01T04:43:37.084Z,100.00
2022-11-01T04:46:23.790Z,100.00
2022-11-01T04:49:10.112Z,100.00
2022-11-01T04:51:56.584Z,100.00
2022-11-01T04:54:42.685Z,100.00
2022-11-01T04:57:29.277Z,100.00
2022-11-01T05:00:16.049Z,100.00
2022-11-01T05:03:04.708Z,100.00
2022-11-01T05:05:51.428Z,100.00
2022-11-01T05:08:37.506Z,100.00
2022-11-01T05:11:25.792Z,100.00
2022-11-01T05:14:12.777Z,100.00
2022-11-01T05:16:59.150Z,100.00
2022-11-01T05:19:45.356Z,100.00
2022-11-01T05:22:31.635Z,100.00
2022-11-01T05:25:18.144Z,100.00
2022-11-01T05:28:11.853Z,100.00
2022-11-01T05:30:58.730Z,100.00
2022-11-01T05:33:45.354Z,100.00
2022-11-01T05:36:31.610Z,100.00
2022-11-01T05:39:18.128Z,100.00
2022-11-01T05:42:04.654Z,100.00
2022-11-01T05:44:50.875Z,100.00
2022-11-01T05:47:40.229Z,100.00
2022-11-01T05:50:26.800Z,100.00
2022-11-01T05:53:14.361Z,100.00
2022-11-01T05:56:00.728Z,100.00
2022-11-01T05:58:47.697Z,100.00
2022-11-01T06:01:34.101Z,100.00
2022-11-01T06:04:22.532Z,100.00
2022-11-01T06:07:08.960Z,100.00
2022-11-01T06:09:55.243Z,100.00
2022-11-01T06:12:41.694Z,100.00
2022-11-01T06:15:28.299Z,100.00
2022-11-01T06:18:14.548Z,100.00
2022-11-01T06:21:00.794Z,100.00
2022-11-01T06:23:48.142Z,100.00
2022-11-01T06:26:34.403Z,100.00
2022-11-01T06:29:20.992Z,100.00
2022-11-01T06:32:07.238Z,100.00
2022-11-01T06:34:53.391Z,100.00
2022-11-01T06:37:39.869Z,100.00
2022-11-01T06:40:26.013Z,100.00
2022-11-01T06:43:12.481Z,100.00
2022-11-01T06:46:00.872Z,100.00
2022-11-01T06:48:48.954Z,100.00
2022-11-01T06:51:35.238Z,100.00
2022-11-01T06:54:21.316Z,100.00
2022-11-01T06:57:08.019Z,100.00
2022-11-01T06:59:54.744Z,100.00
2022-11-01T07:02:41.104Z,100.00
2022-11-01T07:05:31.659Z,100.00
2022-11-01T07:08:20.985Z,100.00
2022-11-01T07:11:07.183Z,100.00
2022-11-01T07:13:53.269Z,100.00
2022-11-01T07:16:40.041Z,100.00
2022-11-01T07:19:26.380Z,100.00
2022-11-01T07:22:12.561Z,100.00
2022-11-01T07:24:59.908Z,100.00
2022-11-01T07:27:46.061Z,100.00
2022-11-01T07:30:32.537Z,100.00
2022-11-01T07:33:19.253Z,100.00
2022-11-01T07:36:05.913Z,100.00
2022-11-01T07:38:52.226Z,100.00
2022-11-01T07:41:38.707Z,100.00
2022-11-01T07:44:25.227Z,100.00
2022-11-01T07:47:11.785Z,100.00
2022-11-01T07:49:57.988Z,100.00
2022-11-01T07:52:45.205Z,100.00
2022-11-01T07:55:31.807Z,100.00
2022-11-01T07:58:18.540Z,100.00
2022-11-01T08:01:05.230Z,100.00
2022-11-01T08:03:52.045Z,100.00
2022-11-01T08:06:38.635Z,100.00
2022-11-01T08:09:25.260Z,100.00
2022-11-01T08:12:11.504Z,100.00
2022-11-01T08:14:57.669Z,100.00
2022-11-01T08:17:44.225Z,100.00
2022-11-01T08:20:30.424Z,100.00
2022-11-01T08:23:17.276Z,100.00
2022-11-01T08:26:06.169Z,100.00
2022-11-01T08:28:52.514Z,100.00
2022-11-01T08:31:41.031Z,100.00
2022-11-01T08:34:27.562Z,100.00
2022-11-01T08:37:14.128Z,100.00
2022-11-01T08:40:00.388Z,100.00
2022-11-01T08:42:47.573Z,100.00
2022-11-01T08:45:33.769Z,100.00
2022-11-01T08:48:19.979Z,100.00
2022-11-01T08:51:06.323Z,100.00
2022-11-01T08:53:57.020Z,100.00
2022-11-01T08:56:43.535Z,100.00
2022-11-01T08:59:29.992Z,100.00
2022-11-01T09:02:16.497Z,100.00
2022-11-01T09:05:06.532Z,100.00
2022-11-01T09:08:00.568Z,100.00
2022-11-01T09:10:47.051Z,100.00
2022-11-01T09:13:34.276Z,100.00
2022-11-01T09:16:20.908Z,100.00
2022-11-01T09:19:06.962Z,100.00
2022-11-01T09:21:53.471Z,100.00
2022-11-01T09:24:40.041Z,100.00
2022-11-01T09:27:26.163Z,100.00
2022-11-01T09:30:12.574Z,100.00
2022-11-01T09:32:58.725Z,100.00
2022-11-01T09:35:54.100Z,100.00
2022-11-01T09:38:43.378Z,100.00
2022-11-01T09:41:36.955Z,100.00
2022-11-01T09:44:30.740Z,97.80
2022-11-01T09:47:22.139Z,100.00
2022-11-01T09:50:25.355Z,98.26
2022-11-01T09:53:18.464Z,99.55
2022-11-01T09:56:14.102Z,98.36
2022-11-01T09:59:12.497Z,98.32
2022-11-01T10:02:07.308Z,98.10
2022-11-01T10:05:34.029Z,97.20
2022-11-01T10:08:41.752Z,96.02
2022-11-01T10:11:42.587Z,95.22
2022-11-01T10:15:06.621Z,96.04
2022-11-01T10:17:55.157Z,94.34
2022-11-01T10:20:41.903Z,95.36
2022-11-01T10:23:40.544Z,93.46
2022-11-01T10:26:30.091Z,92.08
2022-11-01T10:29:23.305Z,89.83
2022-11-01T10:32:25.399Z,90.49
2022-11-01T10:35:23.048Z,90.76
2022-11-01T10:39:04.615Z,92.48
2022-11-01T10:41:48.796Z,94.08
2022-11-01T10:44:41.341Z,95.20
2022-11-01T10:47:28.299Z,90.44
2022-11-01T10:50:24.002Z,91.66
2022-11-01T10:53:12.392Z,91.78
2022-11-01T10:56:03.211Z,95.07
2022-11-01T10:58:57.598Z,95.13
2022-11-01T11:01:45.281Z,94.99
2022-11-01T11:04:32.080Z,94.67
2022-11-01T11:07:23.238Z,91.82
2022-11-01T11:10:31.002Z,89.87
2022-11-01T11:13:23.220Z,91.76
2022-11-01T11:16:23.528Z,94.09
2022-11-01T11:19:19.528Z,94.61
2022-11-01T11:22:08.381Z,94.24
2022-11-01T11:24:58.832Z,94.83
2022-11-01T11:27:52.989Z,95.30
2022-11-01T11:30:39.235Z,97.04
2022-11-01T11:33:25.524Z,93.87
2022-11-01T11:36:12.265Z,94.48
2022-11-01T11:38:59.805Z,95.32
2022-11-01T11:41:47.147Z,96.07
2022-11-01T11:44:55.709Z,95.18
2022-11-01T11:47:43.537Z,96.59
2022-11-01T11:50:32.487Z,98.82
2022-11-01T11:53:22.227Z,98.13
2022-11-01T11:56:11.698Z,98.16
2022-11-01T11:59:16.622Z,97.99
2022-11-01T12:02:06.082Z,98.07
2022-11-01T12:04:56.356Z,96.13
2022-11-01T12:07:51.951Z,96.55
2022-11-01T12:10:45.421Z,92.32
2022-11-01T12:13:37.306Z,91.94
2022-11-01T12:19:30.287Z,91.91
2022-11-01T12:22:16.549Z,92.52
2022-11-01T12:25:11.187Z,93.67
2022-11-01T12:28:01.746Z,92.11
2022-11-01T12:30:52.758Z,90.68
2022-11-01T12:34:03.652Z,89.66
2022-11-01T12:37:07.173Z,92.77
2022-11-01T12:40:05.153Z,91.51
2022-11-01T12:43:10.770Z,92.90
2022-11-01T12:46:02.940Z,92.91
2022-11-01T12:49:14.411Z,93.94
2022-11-01T12:52:10.719Z,94.91
2022-11-01T12:55:16.647Z,94.43
2022-11-01T12:58:15.839Z,94.46
2022-11-01T13:01:05.449Z,94.17
2022-11-01T13:04:15.751Z,93.93
2022-11-01T13:07:10.935Z,96.21
2022-11-01T13:10:27.780Z,95.04
2022-11-01T13:13:29.988Z,91.29
2022-11-01T13:16:25.182Z,90.72
2022-11-01T13:19:31.655Z,90.85
2022-11-01T13:22:37.460Z,90.39
2022-11-01T13:25:42.275Z,89.89
2022-11-01T13:28:34.457Z,89.85
2022-11-01T13:31:27.010Z,91.97
2022-11-01T13:34:30.691Z,90.82
2022-11-01T13:37:43.238Z,91.37
2022-11-01T13:40:41.069Z,91.29
2022-11-01T13:43:37.493Z,92.45
2022-11-01T13:47:08.628Z,91.72
2022-11-01T13:50:01.190Z,92.55
2022-11-01T13:53:19.676Z,94.07
2022-11-01T13:56:17.701Z,93.87
2022-11-01T13:59:13.942Z,95.37
2022-11-01T14:02:25.439Z,95.65
2022-11-01T14:05:13.444Z,95.62
2022-11-01T14:08:02.921Z,97.41
2022-11-01T14:10:50.493Z,97.58
2022-11-01T14:13:45.620Z,97.44
2022-11-01T14:16:31.785Z,99.59
2022-11-01T14:19:21.604Z,96.29
2022-11-01T14:22:27.616Z,97.15
2022-11-01T14:25:13.858Z,99.07
2022-11-01T14:28:18.605Z,97.52
2022-11-01T14:31:05.380Z,97.41
2022-11-01T14:33:56.124Z,97.92
2022-11-01T14:36:46.689Z,98.78
2022-11-01T14:39:40.714Z,98.70
2022-11-01T14:42:36.904Z,98.48
2022-11-01T14:45:30.723Z,98.93
2022-11-01T14:48:40.252Z,98.85
2022-11-01T14:51:39.184Z,100.00
2022-11-01T14:54:46.561Z,99.85
2022-11-01T14:57:34.804Z,100.00
2022-11-01T15:00:30.364Z,100.00
2022-11-01T15:03:17.445Z,100.00
2022-11-01T15:06:14.540Z,100.00
2022-11-01T15:09:04.936Z,99.70
2022-11-01T15:11:53.819Z,99.31
2022-11-01T15:14:44.361Z,100.00
2022-11-01T15:17:34.249Z,100.00
2022-11-01T15:20:21.543Z,100.00
2022-11-01T15:23:11.079Z,99.55
2022-11-01T15:26:00.433Z,100.00
2022-11-01T15:28:57.172Z,100.00
2022-11-01T15:31:51.829Z,100.00
2022-11-01T15:34:38.275Z,100.00
2022-11-01T15:37:32.507Z,100.00
2022-11-01T15:40:29.481Z,100.00
2022-11-01T15:43:19.737Z,100.00
2022-11-01T15:46:06.256Z,100.00
2022-11-01T15:48:54.773Z,100.00
2022-11-01T15:51:48.205Z,100.00
2022-11-01T15:55:02.799Z,100.00
2022-11-01T15:57:57.235Z,100.00
2022-11-01T16:00:53.908Z,100.00
2022-11-01T16:03:45.816Z,100.00
2022-11-01T16:06:46.987Z,100.00
2022-11-01T16:09:44.433Z,100.00
2022-11-01T16:12:35.874Z,100.00
2022-11-01T16:15:29.805Z,100.00
2022-11-01T16:18:17.025Z,100.00
2022-11-01T16:21:24.203Z,100.00
2022-11-01T16:24:15.561Z,100.00
2022-11-01T16:27:06.113Z,100.00
2022-11-01T16:29:52.894Z,100.00
2022-11-01T16:32:39.011Z,100.00
2022-11-01T16:35:36.144Z,100.00
2022-11-01T16:38:38.117Z,100.00
2022-11-01T16:41:37.962Z,100.00
2022-11-01T16:44:27.155Z,100.00
2022-11-01T16:47:15.468Z,100.00
2022-11-01T16:50:02.124Z,100.00
2022-11-01T16:52:48.667Z,100.00
2022-11-01T16:55:37.265Z,100.00
2022-11-01T16:58:26.669Z,100.00
2022-11-01T17:01:21.515Z,100.00
2022-11-01T17:04:11.066Z,100.00
2022-11-01T17:06:59.044Z,100.00
2022-11-01T17:09:45.857Z,100.00
2022-11-01T17:12:32.088Z,100.00
2022-11-01T17:15:13.007Z,100.00
2022-11-01T17:18:06.308Z,100.00
2022-11-01T17:20:53.036Z,100.00
2022-11-01T17:23:47.468Z,100.00
2022-11-01T17:26:42.968Z,100.00
2022-11-01T17:33:07.460Z,100.00
2022-11-01T17:35:54.062Z,100.00
2022-11-01T17:38:41.134Z,100.00
2022-11-01T17:41:27.439Z,100.00
2022-11-01T17:44:13.971Z,100.00
2022-11-01T17:47:00.755Z,100.00
2022-11-01T17:49:47.322Z,100.00
2022-11-01T17:52:33.988Z,100.00
2022-11-01T17:55:20.581Z,100.00
2022-11-01T17:58:08.045Z,100.00
2022-11-01T18:00:58.238Z,100.00
2022-11-01T18:03:44.518Z,100.00
2022-11-01T18:06:31.013Z,100.00
2022-11-01T18:09:25.950Z,100.00
2022-11-01T18:12:27.829Z,100.00
2022-11-01T18:15:25.773Z,100.00
2022-11-01T18:18:21.669Z,100.00
2022-11-01T18:21:15.889Z,100.00
2022-11-01T18:24:13.476Z,100.00
2022-11-01T18:27:02.171Z,100.00
2022-11-01T18:29:51.305Z,100.00
2022-11-01T18:33:10.148Z,100.00
2022-11-01T18:36:06.481Z,100.00
2022-11-01T18:39:16.253Z,100.00
2022-11-01T18:42:06.362Z,100.00
2022-11-01T18:44:57.763Z,100.00
2022-11-01T18:47:51.178Z,100.00
2022-11-01T18:50:38.555Z,100.00
2022-11-01T18:53:27.156Z,100.00
2022-11-01T18:56:18.448Z,100.00
2022-11-01T18:59:38.720Z,100.00
2022-11-01T19:02:28.231Z,100.00
2022-11-01T19:05:18.005Z,100.00
2022-11-01T19:08:19.050Z,100.00
2022-11-01T19:11:05.585Z,100.00
2022-11-01T19:13:52.355Z,100.00
2022-11-01T19:16:38.944Z,100.00
2022-11-01T19:19:25.618Z,100.00
2022-11-01T19:22:39.065Z,100.00
2022-11-01T19:25:32.193Z,100.00
2022-11-01T19:28:33.396Z,100.00
2022-11-01T19:31:38.776Z,100.00
2022-11-01T19:34:28.264Z,100.00
2022-11-01T19:37:18.429Z,100.00
2022-11-01T19:40:27.465Z,100.00
2022-11-01T19:43:19.513Z,100.00
2022-11-01T19:46:15.648Z,100.00
2022-11-01T19:49:02.273Z,100.00
2022-11-01T19:52:10.570Z,100.00
2022-11-01T19:54:57.101Z,100.00
2022-11-01T19:57:45.000Z,100.00
2022-11-01T20:00:33.634Z,100.00
2022-11-01T20:03:26.671Z,100.00
2022-11-01T20:06:16.269Z,100.00
2022-11-01T20:09:16.410Z,100.00
2022-11-01T20:12:03.274Z,100.00
2022-11-01T20:14:50.152Z,100.00
2022-11-01T20:17:36.909Z,100.00
2022-11-01T20:20:25.089Z,100.00
2022-11-01T20:23:25.699Z,100.00
2022-11-01T20:26:12.905Z,100.00
2022-11-01T20:28:59.655Z,100.00
2022-11-01T20:31:51.831Z,100.00
2022-11-01T20:34:39.035Z,100.00
2022-11-01T20:37:28.801Z,100.00
2022-11-01T20:40:15.870Z,100.00
2022-11-01T20:43:02.651Z,100.00
2022-11-01T20:45:49.012Z,100.00
2022-11-01T20:48:35.311Z,100.00
2022-11-01T20:51:21.819Z,100.00
2022-11-01T20:54:08.086Z,100.00
2022-11-01T20:56:54.547Z,100.00
2022-11-01T20:59:41.033Z,100.00
2022-11-01T21:02:28.022Z,100.00
2022-11-01T21:05:14.755Z,100.00
2022-11-01T21:08:24.312Z,100.00
2022-11-01T21:11:22.284Z,100.00
2022-11-01T21:14:15.280Z,100.00
2022-11-01T21:17:11.708Z,100.00
2022-11-01T21:19:58.281Z,100.00
2022-11-01T21:22:44.519Z,100.00
2022-11-01T21:25:31.320Z,100.00
2022-11-01T21:28:32.665Z,100.00
2022-11-01T21:31:39.012Z,100.00
2022-11-01T21:34:30.819Z,100.00
2022-11-01T21:37:22.014Z,100.00
2022-11-01T21:40:22.652Z,100.00
2022-11-01T21:43:24.982Z,100.00
2022-11-01T21:46:19.532Z,100.00
2022-11-01T21:49:22.462Z,100.00
2022-11-01T21:54:57.772Z,100.00
2022-11-01T21:57:44.434Z,100.00
2022-11-01T22:00:30.919Z,100.00
2022-11-01T22:03:17.216Z,100.00
2022-11-01T22:06:03.683Z,100.00
2022-11-01T22:08:49.984Z,100.00
2022-11-01T22:11:37.202Z,100.00
2022-11-01T22:14:24.338Z,100.00
2022-11-01T22:17:10.692Z,100.00
2022-11-01T22:19:57.114Z,100.00
2022-11-01T22:22:43.312Z,100.00
2022-11-01T22:25:29.647Z,100.00
2022-11-01T22:28:16.008Z,100.00
2022-11-01T22:31:02.297Z,100.00
2022-11-01T22:33:54.778Z,100.00
2022-11-01T22:36:42.283Z,100.00
2022-11-01T22:39:29.878Z,100.00
2022-11-01T22:42:17.397Z,100.00
2022-11-01T22:45:13.659Z,100.00
2022-11-01T22:48:00.257Z,100.00
2022-11-01T22:50:46.556Z,100.00
2022-11-01T22:53:32.651Z,100.00
2022-11-01T22:56:18.932Z,100.00
2022-11-01T22:59:09.823Z,100.00
2022-11-01T23:02:03.872Z,100.00
2022-11-01T23:04:57.515Z,100.00
2022-11-01T23:07:44.213Z,100.00
2022-11-01T23:10:35.058Z,100.00
2022-11-01T23:13:55.552Z,100.00
2022-11-01T23:16:44.099Z,100.00
2022-11-01T23:19:30.441Z,100.00
2022-11-01T23:22:21.527Z,100.00
2022-11-01T23:25:09.060Z,100.00
2022-11-01T23:27:55.505Z,100.00
2022-11-01T23:30:43.679Z,100.00
2022-11-01T23:33:45.210Z,100.00
2022-11-01T23:36:35.359Z,100.00
2022-11-01T23:39:22.106Z,100.00
2022-11-01T23:42:18.116Z,100.00
2022-11-01T23:45:06.268Z,100.00
2022-11-01T23:47:53.029Z,100.00
2022-11-01T23:50:39.505Z,100.00
2022-11-01T23:53:37.655Z,100.00
2022-11-01T23:56:24.203Z,100.00
2022-11-01T23:59:10.596Z,100.00
